LIME/BGY METAR and TAF weather

Enter ICAO airport designator
Station Type Date Time Source
LIME METAR 2020/01/29 03:20 UTC NOAA

LIME 290320Z 01004KT CAVOK 02/00 Q1007 NOSIG


Station Type Date Time Source
LIME Decoded METAR 2020/01/29 03:20 UTC NOAA

Bergamo / Orio Al Serio, Italy (LIME) 45-40N 009-42E 237M
Jan 28, 2020 - 10:20 PM EST / 2020.01.29 0320 UTC
Wind: from the N (010 degrees) at 5 MPH (4 KT):0
Visibility: greater than 7 mile(s):0
Temperature: 35 F (2 C)
Windchill: 30 F (-1 C):1
Dew Point: 32 F (0 C)
Relative Humidity: 86%
Pressure (altimeter): 29.74 in. Hg (1007 hPa)
ob: LIME 290320Z 01004KT CAVOK 02/00 Q1007 NOSIG
cycle: 3

Station Type Date Time Source
LIME TAF 2020/01/28 18:21 UTC NOAA

TAF LIME 281700Z 2818/2918 33008KT 5000 BR NSC
TEMPO 2902/2908 1200 BCFG

Example: see airport list